Time;durP1;ratioP1;P1;durP2;ratioP2;P2;SDS_P1;SDS_P2;PMS_P1;PMS_P2;Temp;Humidity;BMP_temperature;BMP_pressure;BME280_temperature;BME280_humidity;BME280_pressure;Samples;Min_cycle;Max_cycle;Signal;HPM_P1;HPM_P2
2021/12/30 00:02:11;;;;;;;73.90;21.33;;;5.50;99.90;;;;;;4998531;28;20042;-65
2021/12/30 00:04:37;;;;;;;70.57;20.85;;;5.50;99.90;;;;;;4999994;28;20041;-65
2021/12/30 00:07:02;;;;;;;63.25;20.63;;;5.50;99.90;;;;;;4998045;28;20140;-65
2021/12/30 00:09:28;;;;;;;55.45;18.70;;;5.50;99.90;;;;;;5004628;28;20075;-65
2021/12/30 00:11:54;;;;;;;65.35;20.25;;;5.70;99.90;;;;;;4980231;28;20061;-65
2021/12/30 00:14:19;;;;;;;59.70;20.77;;;5.50;99.90;;;;;;4997767;28;20490;-65
2021/12/30 00:16:45;;;;;;;69.32;21.52;;;5.60;99.90;;;;;;4998140;28;20096;-65
2021/12/30 00:19:12;;;;;;;54.10;20.08;;;5.60;99.90;;;;;;4997716;28;20095;-65
2021/12/30 00:21:37;;;;;;;64.55;21.75;;;5.60;99.90;;;;;;4997805;28;20046;-65
2021/12/30 00:24:03;;;;;;;74.60;21.40;;;5.70;99.90;;;;;;4997858;28;20041;-65
2021/12/30 00:26:28;;;;;;;57.15;19.80;;;5.80;99.90;;;;;;4997957;28;20492;-65
2021/12/30 00:28:54;;;;;;;59.78;20.30;;;5.80;99.90;;;;;;5002274;28;20087;-65
2021/12/30 00:31:20;;;;;;;57.25;20.02;;;5.80;99.90;;;;;;4998013;28;20111;-65
2021/12/30 00:33:46;;;;;;;61.22;20.90;;;5.80;99.90;;;;;;4999450;28;20038;-65
2021/12/30 00:36:13;;;;;;;70.40;20.85;;;5.90;99.90;;;;;;5004258;28;20470;-65
2021/12/30 00:38:39;;;;;;;61.67;21.45;;;5.90;99.90;;;;;;5006299;28;20033;-65
2021/12/30 00:41:04;;;;;;;58.13;20.80;;;5.90;99.90;;;;;;5010917;28;20060;-65
2021/12/30 00:43:29;;;;;;;59.15;20.00;;;6.00;99.90;;;;;;5007259;28;20032;-65
2021/12/30 00:45:55;;;;;;;58.70;19.83;;;6.00;99.90;;;;;;4999989;28;20477;-64
2021/12/30 00:48:20;;;;;;;55.45;19.45;;;5.90;99.90;;;;;;5008092;28;20389;-65
2021/12/30 00:50:46;;;;;;;68.47;20.48;;;6.00;99.90;;;;;;5000856;28;20029;-65
2021/12/30 00:53:11;;;;;;;55.08;19.30;;;6.00;99.90;;;;;;5000281;28;20072;-65
2021/12/30 00:55:37;;;;;;;66.53;19.48;;;6.00;99.90;;;;;;5002133;28;20052;-65
2021/12/30 00:58:02;;;;;;;45.33;18.65;;;6.00;99.90;;;;;;4997328;28;20034;-65
2021/12/30 01:00:28;;;;;;;54.25;19.80;;;5.90;99.90;;;;;;4997744;28;20057;-65
2021/12/30 01:02:53;;;;;;;57.20;19.55;;;5.90;99.90;;;;;;5001957;28;20148;-64
2021/12/30 01:05:19;;;;;;;51.40;19.20;;;6.00;99.90;;;;;;5000927;28;20041;-65
2021/12/30 01:07:44;;;;;;;54.08;19.75;;;6.00;99.90;;;;;;4985088;28;20088;-65
2021/12/30 01:10:10;;;;;;;54.13;19.35;;;6.00;99.90;;;;;;5005679;28;20030;-65
2021/12/30 01:12:35;;;;;;;50.40;19.52;;;5.90;99.90;;;;;;4993376;28;20470;-65
2021/12/30 01:15:06;;;;;;;50.88;20.05;;;5.90;99.90;;;;;;4990548;28;20553;-65
2021/12/30 01:17:51;;;;;;;50.65;19.35;;;6.00;99.90;;;;;;5002784;28;20034;-65
2021/12/30 01:20:17;;;;;;;57.47;20.33;;;6.00;99.90;;;;;;5002128;28;20084;-65
2021/12/30 01:22:42;;;;;;;53.25;19.73;;;6.00;99.90;;;;;;5002402;28;20121;-65
2021/12/30 01:25:07;;;;;;;61.47;20.85;;;6.00;99.90;;;;;;5002327;28;20133;-65
2021/12/30 01:27:36;;;;;;;51.72;20.33;;;6.00;99.90;;;;;;5007083;28;20036;-64
2021/12/30 01:30:01;;;;;;;65.20;20.92;;;6.00;99.90;;;;;;4990603;28;20044;-64
2021/12/30 01:32:27;;;;;;;49.90;18.98;;;6.00;99.90;;;;;;5001782;28;20034;-64
2021/12/30 01:34:52;;;;;;;48.20;20.17;;;6.00;99.90;;;;;;5001997;28;20441;-65
2021/12/30 01:37:21;;;;;;;46.63;18.90;;;6.00;99.90;;;;;;5002430;28;20065;-65
2021/12/30 01:39:46;;;;;;;53.45;20.15;;;6.00;99.90;;;;;;5002319;28;20076;-65
2021/12/30 01:42:12;;;;;;;52.63;20.02;;;6.00;99.90;;;;;;5001091;28;20149;-65
2021/12/30 01:44:37;;;;;;;49.35;19.80;;;6.00;99.90;;;;;;5001193;28;20042;-65
2021/12/30 01:47:03;;;;;;;52.53;19.40;;;6.00;99.90;;;;;;5001870;28;20037;-65
2021/12/30 01:49:28;;;;;;;60.30;20.23;;;6.00;99.90;;;;;;4985771;28;20084;-65
2021/12/30 01:51:54;;;;;;;45.60;18.48;;;5.60;99.90;;;;;;5001300;28;20042;-65
2021/12/30 01:54:19;;;;;;;47.60;18.92;;;6.20;99.90;;;;;;5001410;28;20030;-64
2021/12/30 01:56:45;;;;;;;50.97;18.42;;;6.00;99.90;;;;;;5001446;28;20569;-64
2021/12/30 01:59:11;;;;;;;49.03;18.50;;;6.30;99.90;;;;;;5001191;28;20046;-64
2021/12/30 02:01:36;;;;;;;52.42;18.73;;;6.00;99.90;;;;;;5003927;28;20041;-65
2021/12/30 02:04:02;;;;;;;66.22;20.90;;;6.00;99.90;;;;;;4995395;28;20029;-65
2021/12/30 02:06:27;;;;;;;50.45;19.20;;;6.00;99.90;;;;;;5001982;28;20438;-65
2021/12/30 02:08:53;;;;;;;47.53;18.23;;;6.00;99.90;;;;;;4991952;28;20103;-65
2021/12/30 02:11:19;;;;;;;46.88;17.98;;;5.90;99.90;;;;;;5000650;28;20849;-65
2021/12/30 02:13:46;;;;;;;61.55;18.58;;;5.90;99.90;;;;;;5005702;28;20045;-65
2021/12/30 02:16:11;;;;;;;61.95;19.33;;;5.90;99.90;;;;;;4999948;28;20136;-65
2021/12/30 02:18:37;;;;;;;39.50;16.60;;;5.90;99.90;;;;;;5000709;28;20826;-65
2021/12/30 02:21:02;;;;;;;46.05;17.50;;;5.90;99.90;;;;;;5000805;28;20517;-64
2021/12/30 02:23:28;;;;;;;45.33;16.88;;;5.90;99.90;;;;;;5000035;28;20720;-65
2021/12/30 02:25:53;;;;;;;46.72;17.52;;;6.00;99.90;;;;;;4999898;28;20139;-65
2021/12/30 02:28:19;;;;;;;43.97;16.00;;;6.00;99.90;;;;;;5000107;28;20033;-65
2021/12/30 02:30:44;;;;;;;49.88;17.25;;;6.00;99.90;;;;;;5005639;28;20029;-65
2021/12/30 02:33:10;;;;;;;57.08;16.85;;;6.10;99.90;;;;;;5002229;28;20030;-64
2021/12/30 02:35:35;;;;;;;49.72;16.83;;;6.20;99.90;;;;;;5000562;28;20037;-65
2021/12/30 02:38:01;;;;;;;54.60;17.30;;;6.30;99.90;;;;;;5000571;28;20639;-65
2021/12/30 02:40:27;;;;;;;49.97;17.00;;;6.30;99.90;;;;;;4990257;28;20511;-65
2021/12/30 02:42:52;;;;;;;49.80;16.35;;;6.40;99.90;;;;;;5000095;28;20053;-65
2021/12/30 02:45:18;;;;;;;41.13;15.48;;;6.40;99.90;;;;;;5000262;28;20048;-65
2021/12/30 02:47:43;;;;;;;45.38;14.70;;;6.50;99.90;;;;;;4999867;28;20030;-65
2021/12/30 02:50:09;;;;;;;42.80;16.00;;;6.50;99.90;;;;;;5000437;28;20032;-65
2021/12/30 02:52:34;;;;;;;48.95;16.13;;;6.50;99.90;;;;;;4992311;28;20030;-65
2021/12/30 02:55:00;;;;;;;56.63;16.08;;;6.60;99.90;;;;;;5003494;28;20040;-64
2021/12/30 02:57:25;;;;;;;41.25;15.60;;;6.50;99.90;;;;;;5000012;28;20125;-65
2021/12/30 02:59:51;;;;;;;49.80;16.13;;;6.60;99.90;;;;;;4999879;28;20208;-65
2021/12/30 03:02:16;;;;;;;45.35;16.05;;;6.60;99.90;;;;;;4998946;28;20153;-64
2021/12/30 03:04:42;;;;;;;40.10;13.60;;;6.60;99.90;;;;;;4999028;28;20041;-65
2021/12/30 03:07:07;;;;;;;40.10;15.30;;;6.60;99.90;;;;;;4999425;28;20053;-65
2021/12/30 03:09:33;;;;;;;42.17;14.55;;;6.70;99.90;;;;;;4999127;28;20907;-64
2021/12/30 03:11:58;;;;;;;48.45;15.13;;;6.70;99.90;;;;;;4999363;28;20046;-65
2021/12/30 03:14:25;;;;;;;51.80;15.75;;;6.70;99.90;;;;;;4999528;28;20581;-65
2021/12/30 03:16:51;;;;;;;49.00;15.65;;;6.80;99.90;;;;;;4999128;28;20034;-65
2021/12/30 03:19:16;;;;;;;38.90;14.15;;;6.70;99.90;;;;;;5005750;28;20041;-65
2021/12/30 03:21:42;;;;;;;43.08;15.48;;;6.80;99.90;;;;;;5005221;28;20153;-65
2021/12/30 03:24:08;;;;;;;38.45;14.40;;;6.80;99.90;;;;;;4998358;28;20120;-65
2021/12/30 03:26:35;;;;;;;39.70;15.25;;;6.80;99.90;;;;;;4998515;28;20141;-65
2021/12/30 03:29:00;;;;;;;54.45;16.55;;;6.90;99.90;;;;;;4998903;28;20080;-65
2021/12/30 03:31:26;;;;;;;51.65;17.05;;;6.90;99.90;;;;;;4984699;28;20505;-65
2021/12/30 03:33:51;;;;;;;59.10;17.33;;;7.00;99.90;;;;;;4999847;28;20450;-65
2021/12/30 03:36:17;;;;;;;53.72;17.90;;;7.00;99.90;;;;;;4983906;28;20038;-65
2021/12/30 03:38:42;;;;;;;57.20;18.02;;;7.00;99.90;;;;;;5000028;28;20516;-64
2021/12/30 03:41:07;;;;;;;72.57;20.33;;;7.10;99.90;;;;;;4984974;28;20042;-65
2021/12/30 03:43:33;;;;;;;69.40;18.90;;;7.10;99.90;;;;;;4999583;28;20441;-65
2021/12/30 03:45:58;;;;;;;74.47;20.60;;;7.10;99.90;;;;;;4999847;28;20030;-65
2021/12/30 03:48:31;;;;;;;90.32;22.67;;;7.10;99.90;;;;;;5001012;28;20037;-65
2021/12/30 03:50:57;;;;;;;86.03;21.77;;;7.10;99.90;;;;;;5005363;28;20579;-65
2021/12/30 03:53:22;;;;;;;74.88;20.05;;;7.20;99.90;;;;;;5006578;28;20144;-65
2021/12/30 03:55:51;;;;;;;101.50;23.17;;;7.20;99.90;;;;;;5009281;28;20048;-65
2021/12/30 03:58:17;;;;;;;110.47;25.27;;;7.20;99.90;;;;;;5015568;28;20040;-65
2021/12/30 04:00:42;;;;;;;135.07;27.00;;;7.30;99.90;;;;;;5000566;28;20549;-65
2021/12/30 04:03:07;;;;;;;124.25;26.40;;;7.30;99.90;;;;;;4997500;28;20147;-65
2021/12/30 04:05:33;;;;;;;136.15;29.23;;;7.40;99.90;;;;;;5004335;28;20861;-65
2021/12/30 04:07:58;;;;;;;135.68;28.83;;;7.40;99.90;;;;;;5008581;28;20128;-65
2021/12/30 04:10:24;;;;;;;151.57;29.15;;;7.50;99.90;;;;;;5001916;28;20057;-65
2021/12/30 04:12:50;;;;;;;154.55;31.50;;;7.50;99.90;;;;;;4987677;28;20697;-65
2021/12/30 04:15:15;;;;;;;144.85;32.13;;;7.60;99.90;;;;;;5008896;28;20117;-65
2021/12/30 04:17:40;;;;;;;156.60;32.08;;;7.60;99.90;;;;;;4998922;28;20077;-65
2021/12/30 04:20:07;;;;;;;149.05;31.65;;;7.70;99.90;;;;;;5001271;28;20092;-64
2021/12/30 04:22:33;;;;;;;137.23;29.60;;;7.70;99.90;;;;;;4999658;28;20432;-65
2021/12/30 04:24:58;;;;;;;152.77;32.80;;;7.70;99.90;;;;;;4998664;28;20034;-65
2021/12/30 04:27:24;;;;;;;157.35;33.22;;;7.70;99.90;;;;;;4999481;28;20541;-65
2021/12/30 04:29:49;;;;;;;166.95;34.33;;;8.70;99.90;;;;;;4999003;28;20164;-65
2021/12/30 04:32:15;;;;;;;158.52;31.60;;;7.80;99.90;;;;;;4999057;28;20470;-64
2021/12/30 04:34:40;;;;;;;166.82;35.08;;;7.90;99.90;;;;;;5001399;28;20041;-65
2021/12/30 04:37:06;;;;;;;174.70;34.20;;;6.80;99.90;;;;;;5001171;28;20030;-65
2021/12/30 04:39:31;;;;;;;180.35;35.67;;;8.00;99.90;;;;;;4988982;28;20030;-65
2021/12/30 04:42:01;;;;;;;170.43;33.38;;;8.80;99.90;;;;;;5006758;28;20044;-65
2021/12/30 04:44:26;;;;;;;168.68;34.55;;;8.00;99.90;;;;;;5002587;28;20041;-65
2021/12/30 04:46:52;;;;;;;175.27;34.90;;;8.00;99.90;;;;;;5006702;28;20041;-65
2021/12/30 04:49:17;;;;;;;160.88;32.67;;;8.10;99.90;;;;;;5002612;28;20045;-66
2021/12/30 04:51:43;;;;;;;177.35;33.92;;;8.10;99.90;;;;;;5002965;28;20061;-66
2021/12/30 04:54:08;;;;;;;162.45;34.42;;;8.10;99.90;;;;;;5002391;28;20038;-65
2021/12/30 04:56:34;;;;;;;159.90;32.22;;;8.10;99.90;;;;;;4994367;28;20056;-65
2021/12/30 04:58:59;;;;;;;148.43;32.08;;;8.10;99.90;;;;;;5002811;28;20893;-65
2021/12/30 05:01:25;;;;;;;151.32;32.88;;;8.20;99.90;;;;;;4989544;28;20421;-65
2021/12/30 05:03:50;;;;;;;161.30;33.78;;;8.10;99.90;;;;;;5002264;28;20042;-65
2021/12/30 05:06:16;;;;;;;165.65;31.80;;;8.10;99.90;;;;;;5003913;28;20406;-66
2021/12/30 05:08:41;;;;;;;160.82;32.35;;;8.10;99.90;;;;;;4996724;28;20041;-65
2021/12/30 05:11:07;;;;;;;167.63;33.35;;;8.10;99.90;;;;;;5006546;28;20058;-65
2021/12/30 05:13:32;;;;;;;166.60;32.10;;;8.20;99.90;;;;;;5002858;28;20030;-65
2021/12/30 05:15:57;;;;;;;166.60;32.60;;;8.10;99.90;;;;;;5002608;28;20446;-65
2021/12/30 05:18:32;;;;;;;163.98;30.25;;;8.10;99.90;;;;;;5013669;28;20060;-65
2021/12/30 05:20:58;;;;;;;145.35;34.25;;;8.10;99.90;;;;;;5003845;28;20045;-65
2021/12/30 05:23:24;;;;;;;174.32;33.67;;;8.10;99.90;;;;;;5007263;28;20040;-65
2021/12/30 05:25:49;;;;;;;158.32;31.48;;;8.10;99.90;;;;;;5005888;28;20026;-66
2021/12/30 05:28:14;;;;;;;136.73;31.17;;;8.10;99.90;;;;;;5003357;28;20132;-65
2021/12/30 05:30:40;;;;;;;144.82;32.00;;;8.10;99.90;;;;;;5002209;28;20029;-65
2021/12/30 05:33:06;;;;;;;158.63;31.63;;;8.10;99.90;;;;;;5002904;28;20128;-65
2021/12/30 05:35:31;;;;;;;165.15;30.27;;;8.10;99.90;;;;;;5002393;28;20025;-65
2021/12/30 05:37:57;;;;;;;145.10;30.20;;;8.00;99.90;;;;;;4991776;28;20048;-65
2021/12/30 05:40:22;;;;;;;154.75;31.08;;;8.10;99.90;;;;;;5002337;28;20057;-65
2021/12/30 05:42:48;;;;;;;145.90;30.63;;;8.10;99.90;;;;;;5001131;28;20041;-64
2021/12/30 05:45:16;;;;;;;133.50;29.77;;;8.10;99.90;;;;;;5003935;28;20036;-65
2021/12/30 05:47:42;;;;;;;148.82;30.10;;;8.10;99.90;;;;;;5002653;28;20033;-65
2021/12/30 05:50:07;;;;;;;128.43;29.80;;;8.10;99.90;;;;;;5002086;28;20029;-65
2021/12/30 05:52:33;;;;;;;139.00;30.23;;;8.10;99.90;;;;;;5001162;28;20040;-65
2021/12/30 05:54:58;;;;;;;160.30;31.23;;;8.10;99.90;;;;;;5004226;28;20022;-65
2021/12/30 05:57:24;;;;;;;152.20;29.95;;;8.10;99.90;;;;;;5001725;28;20628;-65
2021/12/30 05:59:49;;;;;;;137.82;28.90;;;8.10;99.90;;;;;;5000931;28;20133;-65
2021/12/30 06:02:15;;;;;;;144.65;31.25;;;8.00;99.90;;;;;;5001214;28;20064;-65
2021/12/30 06:04:44;;;;;;;148.82;28.55;;;8.00;99.90;;;;;;5004747;28;20030;-65
2021/12/30 06:07:09;;;;;;;133.18;27.05;;;8.00;99.90;;;;;;4989950;28;20631;-65
2021/12/30 06:09:34;;;;;;;149.00;27.98;;;8.00;99.90;;;;;;5001008;28;20033;-65
2021/12/30 06:12:00;;;;;;;135.75;28.23;;;8.00;99.90;;;;;;5001324;28;20037;-65
2021/12/30 06:14:25;;;;;;;129.43;27.08;;;7.80;99.90;;;;;;5000647;28;20635;-65
2021/12/30 06:16:51;;;;;;;113.28;25.50;;;7.80;99.90;;;;;;5009007;28;20042;-65
2021/12/30 06:19:16;;;;;;;138.82;27.65;;;7.80;99.90;;;;;;4987169;28;20046;-65
2021/12/30 06:21:42;;;;;;;129.15;26.17;;;7.80;99.90;;;;;;5001225;28;20033;-65
2021/12/30 06:24:07;;;;;;;122.45;26.52;;;7.80;99.90;;;;;;4987981;28;20457;-65
2021/12/30 06:26:33;;;;;;;133.05;25.95;;;7.80;99.90;;;;;;5003375;28;20022;-65
2021/12/30 06:28:58;;;;;;;120.45;26.55;;;7.80;99.90;;;;;;5005774;28;20037;-65
2021/12/30 06:31:24;;;;;;;141.02;26.58;;;7.70;99.90;;;;;;4984283;28;20076;-65
2021/12/30 06:33:49;;;;;;;118.28;24.63;;;7.70;99.90;;;;;;5001122;28;20092;-65
2021/12/30 06:36:17;;;;;;;128.43;25.73;;;7.70;99.90;;;;;;4987643;28;20145;-65
2021/12/30 06:38:42;;;;;;;124.65;25.77;;;7.70;99.90;;;;;;5001694;28;20077;-65
2021/12/30 06:41:08;;;;;;;140.02;24.63;;;7.70;99.90;;;;;;5001273;28;20069;-65
2021/12/30 06:43:33;;;;;;;104.65;24.10;;;7.70;99.90;;;;;;5003397;28;20029;-65
2021/12/30 06:46:01;;;;;;;122.88;23.17;;;7.70;99.90;;;;;;5005731;28;20708;-65
2021/12/30 06:48:26;;;;;;;126.88;25.52;;;7.80;99.90;;;;;;5001425;28;20846;-65
2021/12/30 06:50:53;;;;;;;135.68;26.38;;;7.80;99.90;;;;;;5001187;28;20038;-65
2021/12/30 06:53:18;;;;;;;117.95;24.00;;;7.80;99.90;;;;;;5002654;28;20115;-66
2021/12/30 06:55:44;;;;;;;122.85;25.27;;;7.80;99.90;;;;;;5000453;28;20033;-65
2021/12/30 06:58:09;;;;;;;137.82;25.65;;;7.80;99.90;;;;;;5007778;28;20033;-65
2021/12/30 07:00:35;;;;;;;110.20;24.50;;;7.90;99.90;;;;;;5000759;28;20553;-65
2021/12/30 07:03:00;;;;;;;138.68;25.83;;;7.90;99.90;;;;;;5004312;28;20026;-65
2021/12/30 07:05:26;;;;;;;123.20;25.55;;;7.90;99.90;;;;;;5001136;28;20052;-65
2021/12/30 07:07:51;;;;;;;113.13;25.42;;;7.90;99.90;;;;;;4986742;28;20029;-65
2021/12/30 07:10:16;;;;;;;134.38;26.00;;;7.90;99.90;;;;;;5000883;28;20044;-64
2021/12/30 07:12:42;;;;;;;150.68;27.20;;;8.00;99.90;;;;;;4983505;28;20037;-65
2021/12/30 07:15:08;;;;;;;138.52;24.50;;;7.90;99.90;;;;;;5004451;28;20568;-65
2021/12/30 07:17:33;;;;;;;144.40;27.58;;;7.90;99.90;;;;;;5003722;28;20099;-65
2021/12/30 07:19:59;;;;;;;132.93;24.42;;;7.90;99.90;;;;;;4987769;28;20037;-64
2021/12/30 07:22:24;;;;;;;118.45;23.58;;;7.90;99.90;;;;;;4986204;28;20042;-65
2021/12/30 07:24:49;;;;;;;142.02;25.23;;;8.10;99.90;;;;;;5011850;28;20116;-65
2021/12/30 07:27:15;;;;;;;149.93;26.05;;;8.10;99.90;;;;;;4988104;28;20471;-64
2021/12/30 07:29:40;;;;;;;136.73;25.73;;;8.10;99.90;;;;;;5008631;28;20030;-65
2021/12/30 07:32:06;;;;;;;165.15;25.65;;;8.20;99.90;;;;;;5008764;28;20038;-64
2021/12/30 07:34:31;;;;;;;134.05;25.85;;;8.30;99.90;;;;;;5001562;28;20363;-65
2021/12/30 07:36:57;;;;;;;137.65;24.23;;;8.10;99.90;;;;;;4986099;28;20037;-65
2021/12/30 07:39:22;;;;;;;97.45;21.98;;;8.10;99.90;;;;;;5000465;28;20100;-65
2021/12/30 07:41:48;;;;;;;116.78;22.38;;;8.10;99.90;;;;;;4982782;28;20041;-65
2021/12/30 07:44:15;;;;;;;117.60;23.38;;;8.20;99.90;;;;;;5003061;28;20080;-65
2021/12/30 07:46:40;;;;;;;121.80;22.77;;;7.80;99.90;;;;;;4999367;28;20038;-65
2021/12/30 07:49:06;;;;;;;122.40;23.55;;;8.80;99.90;;;;;;4999713;28;20084;-65
2021/12/30 07:51:31;;;;;;;101.65;21.95;;;8.30;99.90;;;;;;5000026;28;20509;-65
2021/12/30 07:53:57;;;;;;;75.93;19.45;;;8.00;99.90;;;;;;4998751;28;20036;-65
2021/12/30 07:56:22;;;;;;;121.93;22.50;;;7.90;99.90;;;;;;5007026;28;20041;-65
2021/12/30 07:58:48;;;;;;;90.00;21.15;;;8.60;99.90;;;;;;4990318;28;20835;-66
2021/12/30 08:01:13;;;;;;;108.63;20.23;;;8.20;99.90;;;;;;4989677;28;20037;-66
2021/12/30 08:03:39;;;;;;;107.20;20.50;;;;;;;;;;5003067;28;20040;-66
2021/12/30 08:06:05;;;;;;;79.82;19.92;;;8.80;99.90;;;;;;5002163;28;20029;-66
2021/12/30 08:08:30;;;;;;;91.22;25.25;;;8.20;99.90;;;;;;4993093;28;20086;-66
2021/12/30 08:10:56;;;;;;;101.43;30.98;;;8.50;99.90;;;;;;5008248;28;20034;-63
2021/12/30 08:13:23;;;;;;;75.72;20.17;;;;;;;;;;5006556;28;20048;-63
2021/12/30 08:15:50;;;;;;;65.32;19.45;;;;;;;;;;5000052;28;20362;-63
2021/12/30 08:18:16;;;;;;;67.22;18.08;;;;;;;;;;4985814;28;20116;-63
2021/12/30 08:20:41;;;;;;;80.93;18.63;;;7.90;99.90;;;;;;5006016;28;20083;-63
2021/12/30 08:23:07;;;;;;;70.40;16.92;;;8.20;99.90;;;;;;5006794;28;20591;-64
2021/12/30 08:25:32;;;;;;;79.93;17.23;;;8.30;99.90;;;;;;5000119;28;20032;-65
2021/12/30 08:27:58;;;;;;;70.65;18.90;;;8.30;99.90;;;;;;5003353;28;20557;-66
2021/12/30 08:30:23;;;;;;;82.07;19.02;;;8.30;99.90;;;;;;5000169;28;20117;-66
2021/12/30 08:32:49;;;;;;;77.65;21.05;;;8.40;99.90;;;;;;4999873;28;20069;-66
2021/12/30 08:35:14;;;;;;;96.93;19.23;;;8.40;99.90;;;;;;4999185;28;20042;-66
2021/12/30 08:37:40;;;;;;;77.55;21.95;;;8.40;99.90;;;;;;4982614;28;20041;-66
2021/12/30 08:40:06;;;;;;;89.03;26.95;;;8.50;99.90;;;;;;4999797;28;20092;-66
2021/12/30 08:42:31;;;;;;;115.13;23.77;;;8.50;99.90;;;;;;5003954;28;20409;-66
2021/12/30 08:44:57;;;;;;;72.43;21.23;;;8.50;99.90;;;;;;5001183;28;20029;-65
2021/12/30 08:47:23;;;;;;;79.60;19.50;;;;;;;;;;4999714;28;20061;-65
2021/12/30 08:49:48;;;;;;;89.47;19.35;;;9.00;99.90;;;;;;5004262;28;20053;-65
2021/12/30 08:52:13;;;;;;;72.85;18.75;;;8.60;99.90;;;;;;4992025;28;20072;-65
2021/12/30 08:54:39;;;;;;;77.00;18.80;;;8.60;99.90;;;;;;4990685;28;20037;-66
2021/12/30 08:57:05;;;;;;;103.60;33.67;;;8.80;99.90;;;;;;5008036;28;20103;-66
2021/12/30 08:59:30;;;;;;;60.03;17.50;;;8.80;99.90;;;;;;5000210;28;20040;-66
2021/12/30 09:01:56;;;;;;;63.65;18.63;;;8.80;99.90;;;;;;4985547;28;20038;-65
2021/12/30 09:04:21;;;;;;;77.70;25.25;;;8.80;99.90;;;;;;4999334;28;20034;-67
2021/12/30 09:06:47;;;;;;;78.93;17.95;;;8.70;99.90;;;;;;4999547;28;20117;-64
2021/12/30 09:09:12;;;;;;;51.15;15.52;;;8.80;99.90;;;;;;4999615;28;20060;-64
2021/12/30 09:11:38;;;;;;;61.15;17.80;;;8.70;99.90;;;;;;4999531;28;20874;-66
2021/12/30 09:14:03;;;;;;;110.93;45.95;;;8.80;99.90;;;;;;4998963;28;20398;-65
2021/12/30 09:16:29;;;;;;;55.92;16.05;;;8.80;99.90;;;;;;5006063;28;20516;-65
2021/12/30 09:18:54;;;;;;;61.88;15.43;;;8.80;99.90;;;;;;5000453;28;20038;-65
2021/12/30 09:21:20;;;;;;;52.95;13.52;;;8.90;99.90;;;;;;4999467;28;20033;-66
2021/12/30 09:23:45;;;;;;;68.90;15.73;;;8.90;99.90;;;;;;4995577;28;20037;-65
2021/12/30 09:26:11;;;;;;;58.03;14.75;;;8.90;99.90;;;;;;5010554;28;20030;-65
2021/12/30 09:28:36;;;;;;;70.40;14.90;;;8.90;99.90;;;;;;5002872;28;20045;-66
2021/12/30 09:31:02;;;;;;;54.95;14.40;;;8.90;99.90;;;;;;4988094;28;20617;-66
2021/12/30 09:33:27;;;;;;;32.85;13.07;;;8.80;99.90;;;;;;5014440;28;20029;-65
2021/12/30 09:35:53;;;;;;;48.25;13.80;;;8.80;99.90;;;;;;5011500;28;20609;-65
2021/12/30 09:38:18;;;;;;;62.20;19.75;;;9.50;99.90;;;;;;5002781;28;20025;-64
2021/12/30 09:40:43;;;;;;;47.53;12.52;;;8.80;99.90;;;;;;4998578;28;20853;-65
2021/12/30 09:43:11;;;;;;;55.75;18.45;;;8.90;99.90;;;;;;5001388;28;20030;-64
2021/12/30 09:45:37;;;;;;;49.38;12.30;;;8.90;99.90;;;;;;5009406;28;20113;-65
2021/12/30 09:48:04;;;;;;;39.00;12.82;;;9.00;99.90;;;;;;5002576;28;20883;-65
2021/12/30 09:50:29;;;;;;;38.63;11.82;;;8.90;99.90;;;;;;5001597;28;20030;-65
2021/12/30 09:52:55;;;;;;;39.75;11.65;;;9.50;99.90;;;;;;5002194;28;20044;-65
2021/12/30 09:55:21;;;;;;;53.45;11.57;;;9.30;99.90;;;;;;5016240;28;20029;-65
2021/12/30 09:57:47;;;;;;;40.85;12.13;;;8.60;99.90;;;;;;4986730;28;20045;-65
2021/12/30 10:00:13;;;;;;;35.28;11.45;;;;;;;;;;5001271;28;20473;-65
2021/12/30 10:02:38;;;;;;;53.17;11.57;;;9.00;99.90;;;;;;5001006;28;20112;-65
2021/12/30 10:05:04;;;;;;;45.42;12.40;;;;;;;;;;5004771;28;20041;-65
2021/12/30 10:07:30;;;;;;;45.00;10.40;;;;;;;;;;5003934;28;20041;-65
2021/12/30 10:10:00;;;;;;;35.30;10.95;;;9.00;99.90;;;;;;5001075;28;20837;-64
2021/12/30 10:12:26;;;;;;;35.75;10.65;;;;;;;;;;4997257;28;20049;-64
2021/12/30 10:14:52;;;;;;;38.10;11.80;;;;;;;;;;4998316;28;20099;-64
2021/12/30 10:17:18;;;;;;;39.25;11.40;;;9.60;99.90;;;;;;4998927;28;20041;-65
2021/12/30 10:19:44;;;;;;;41.88;11.07;;;;;;;;;;4991166;28;20037;-65
2021/12/30 10:22:10;;;;;;;43.90;12.07;;;;;;;;;;4992859;28;20516;-65
2021/12/30 10:24:36;;;;;;;59.63;20.95;;;;;;;;;;5002295;28;20025;-68
2021/12/30 10:27:02;;;;;;;28.30;12.07;;;;;;;;;;5002125;28;20564;-65
2021/12/30 10:29:28;;;;;;;34.95;11.07;;;;;;;;;;4988718;28;20030;-65
2021/12/30 10:31:54;;;;;;;30.13;9.73;;;;;;;;;;5000474;28;20033;-64
2021/12/30 10:34:20;;;;;;;39.63;10.25;;;;;;;;;;4998801;28;20524;-65
2021/12/30 10:36:45;;;;;;;34.08;9.82;;;9.40;99.90;;;;;;5005521;28;20040;-64
2021/12/30 10:39:11;;;;;;;32.40;10.27;;;;;;;;;;4985133;28;20038;-64
2021/12/30 10:41:37;;;;;;;35.33;11.38;;;9.10;99.90;;;;;;5006417;28;20569;-64
2021/12/30 10:44:02;;;;;;;33.90;10.00;;;9.20;99.90;;;;;;4999096;28;20109;-64
2021/12/30 10:46:28;;;;;;;25.88;9.55;;;9.20;99.90;;;;;;4993773;28;20026;-64
2021/12/30 10:48:54;;;;;;;25.85;9.93;;;9.20;99.90;;;;;;5003048;28;20370;-63
2021/12/30 10:51:19;;;;;;;30.10;10.60;;;9.20;99.90;;;;;;5003682;28;20069;-64
2021/12/30 10:53:45;;;;;;;36.88;10.48;;;9.30;99.90;;;;;;4998091;28;20099;-64
2021/12/30 10:56:10;;;;;;;30.92;10.02;;;9.30;99.90;;;;;;4996192;28;20075;-64
2021/12/30 10:58:35;;;;;;;39.60;11.05;;;9.20;99.90;;;;;;4999271;28;20047;-65
2021/12/30 11:01:01;;;;;;;28.67;9.88;;;;;;;;;;4985037;28;20041;-64
2021/12/30 11:03:28;;;;;;;32.40;11.73;;;9.20;99.90;;;;;;4997155;28;20065;-64
2021/12/30 11:05:53;;;;;;;31.67;10.80;;;9.30;99.90;;;;;;4996552;28;20034;-65
2021/12/30 11:08:19;;;;;;;42.53;11.60;;;;;;;;;;4994413;28;20032;-65
2021/12/30 11:10:45;;;;;;;29.65;11.32;;;;;;;;;;4991401;28;20084;-65
2021/12/30 11:13:11;;;;;;;27.85;11.13;;;9.20;99.90;;;;;;5012824;28;20061;-66
2021/12/30 11:15:36;;;;;;;38.47;15.95;;;9.80;99.90;;;;;;5018317;28;20049;-65
2021/12/30 11:18:02;;;;;;;35.50;13.00;;;;;;;;;;5022472;28;20041;-67
2021/12/30 11:20:28;;;;;;;42.40;12.10;;;;;;;;;;4991259;28;20032;-65
2021/12/30 11:22:54;;;;;;;37.38;11.70;;;;;;;;;;5025079;28;20087;-65
2021/12/30 11:25:20;;;;;;;38.22;12.07;;;;;;;;;;5017142;28;20026;-65
2021/12/30 11:27:46;;;;;;;31.30;10.85;;;;;;;;;;5007062;28;20041;-66
2021/12/30 11:30:12;;;;;;;42.03;14.85;;;;;;;;;;5023885;28;20663;-66
2021/12/30 11:32:38;;;;;;;39.90;12.80;;;;;;;;;;5011825;28;20091;-67
2021/12/30 11:35:04;;;;;;;42.30;11.80;;;;;;;;;;5011383;28;20048;-67
2021/12/30 11:37:30;;;;;;;33.65;11.70;;;;;;;;;;4999414;28;20051;-66
2021/12/30 11:39:56;;;;;;;34.58;11.82;;;;;;;;;;5016439;28;20036;-65
2021/12/30 11:42:22;;;;;;;34.42;12.20;;;;;;;;;;5016273;28;20044;-67
2021/12/30 11:44:48;;;;;;;31.10;11.10;;;;;;;;;;5009059;28;20429;-67
2021/12/30 11:47:14;;;;;;;36.95;11.32;;;;;;;;;;5016757;28;20030;-67
2021/12/30 11:49:40;;;;;;;34.75;11.23;;;;;;;;;;5009664;28;20037;-67
2021/12/30 11:52:06;;;;;;;28.92;11.02;;;;;;;;;;5023664;28;20065;-67
2021/12/30 11:54:32;;;;;;;35.60;10.30;;;9.50;99.90;;;;;;4999406;28;20148;-66
2021/12/30 11:56:57;;;;;;;30.42;10.95;;;8.60;99.90;;;;;;5001898;28;20121;-67
2021/12/30 11:59:23;;;;;;;32.25;11.00;;;;;;;;;;5019573;28;20107;-67
2021/12/30 12:01:49;;;;;;;31.63;10.18;;;;;;;;;;4996156;28;20461;-67
2021/12/30 12:04:15;;;;;;;29.20;10.70;;;;;;;;;;5013328;28;20061;-68
2021/12/30 12:06:42;;;;;;;38.95;11.40;;;;;;;;;;5032028;28;20102;-68
2021/12/30 12:09:08;;;;;;;29.48;10.18;;;;;;;;;;5021380;28;20045;-66
2021/12/30 12:11:34;;;;;;;40.25;9.85;;;;;;;;;;5005609;28;20033;-67
2021/12/30 12:14:00;;;;;;;31.17;9.70;;;;;;;;;;5021311;28;20750;-67
2021/12/30 12:16:26;;;;;;;32.58;9.48;;;;;;;;;;5001554;28;20469;-67
2021/12/30 12:18:52;;;;;;;43.17;10.75;;;;;;;;;;5006242;28;20539;-67
2021/12/30 12:21:18;;;;;;;30.27;9.45;;;;;;;;;;5004151;28;20065;-67
2021/12/30 12:23:47;;;;;;;42.85;10.70;;;8.90;99.90;;;;;;5023065;28;20481;-67
2021/12/30 12:26:16;;;;;;;32.95;10.00;;;;;;;;;;4999811;28;20156;-67
2021/12/30 12:28:42;;;;;;;30.48;9.82;;;;;;;;;;4989431;28;20107;-67
2021/12/30 12:31:08;;;;;;;26.92;9.38;;;;;;;;;;5016635;28;20481;-66
2021/12/30 12:33:34;;;;;;;30.70;9.73;;;;;;;;;;5004654;28;20127;-66
2021/12/30 12:36:00;;;;;;;35.17;9.82;;;;;;;;;;5021659;28;20036;-67
2021/12/30 12:38:26;;;;;;;41.60;10.85;;;;;;;;;;5005034;28;20034;-67
2021/12/30 12:40:52;;;;;;;33.90;9.70;;;;;;;;;;5020192;28;20039;-67
2021/12/30 12:43:18;;;;;;;28.30;8.98;;;;;;;;;;5018745;28;20061;-67